Time;durP1;ratioP1;P1;durP2;ratioP2;P2;SDS_P1;SDS_P2;PMS_P1;PMS_P2;Temp;Humidity;BMP_temperature;BMP_pressure;BME280_temperature;BME280_humidity;BME280_pressure;Samples;Min_cycle;Max_cycle;Signal;HPM_P1;HPM_P2
2024/01/16 00:01:53;;;;;;;;;;;;;;;8.39;47.20;99199.88;4957050;28;107997;-65
2024/01/16 00:04:20;;;;;;;;;;;;;;;8.39;46.51;99199.88;4941548;28;98356;-72
2024/01/16 00:06:46;;;;;;;;;;;;;;;8.37;47.07;99202.88;4945321;28;97912;-72
2024/01/16 00:09:12;;;;;;;;;;;;;;;8.39;46.92;99211.41;4923812;28;98934;-65
2024/01/16 00:11:42;;;;;;;;;;;;;;;8.37;47.10;99208.22;4938735;28;98408;-69
2024/01/16 00:14:08;;;;;;;;;;;;;;;8.38;46.44;99200.97;4926156;28;98062;-65
2024/01/16 00:16:41;;;;;;;;;;;;;;;8.38;46.88;99203.66;4948415;28;98043;-72
2024/01/16 00:19:07;;;;;;;;;;;;;;;8.38;46.63;99209.03;4943177;28;99708;-65
2024/01/16 00:21:37;;;;;;;;;;;;;;;8.38;46.76;99209.03;4925755;28;98164;-66
2024/01/16 00:24:03;;;;;;;;;;;;;;;8.38;47.02;99214.41;4938390;28;111914;-65
2024/01/16 00:26:29;;;;;;;;;;;;;;;8.37;46.88;99224.34;4942110;28;99494;-65
2024/01/16 00:28:55;;;;;;;;;;;;;;;8.37;46.66;99224.34;4925711;28;98285;-71
2024/01/16 00:31:21;;;;;;;;;;;;;;;8.36;47.04;99228.84;4929899;28;100011;-71
2024/01/16 00:33:47;;;;;;;;;;;;;;;8.38;46.74;99235.88;4939629;28;98713;-65
2024/01/16 00:36:14;;;;;;;;;;;;;;;8.36;47.25;99236.13;4927607;28;97991;-65
2024/01/16 00:38:40;;;;;;;;;;;;;;;8.35;47.20;99229.16;4925306;28;99590;-64
2024/01/16 00:41:06;;;;;;;;;;;;;;;8.36;47.11;99239.59;4942127;28;98389;-65
2024/01/16 00:43:34;;;;;;;;;;;;;;;8.35;47.14;99245.25;4929690;28;98889;-65
2024/01/16 00:46:01;;;;;;;;;;;;;;;8.39;46.86;99245.53;4931148;28;98087;-65
2024/01/16 00:48:27;;;;;;;;;;;;;;;8.45;47.27;99242.53;4926392;28;100279;-71
2024/01/16 00:50:52;;;;;;;;;;;;;;;8.51;46.59;99248.66;4942479;28;120063;-65
2024/01/16 00:53:18;;;;;;;;;;;;;;;8.56;46.92;99249.38;4927382;28;127360;-65
2024/01/16 00:55:44;;;;;;;;;;;;;;;8.62;46.88;99257.41;4926229;28;112146;-65
2024/01/16 00:58:10;;;;;;;;;;;;;;;8.64;47.21;99245.28;4929008;28;99457;-65
2024/01/16 01:00:37;;;;;;;;;;;;;;;8.66;46.30;99247.72;4940007;28;125523;-71
2024/01/16 01:03:04;;;;;;;;;;;;;;;8.70;47.20;99246.06;4925458;28;98339;-65
2024/01/16 01:05:30;;;;;;;;;;;;;;;8.72;47.05;99247.34;4926799;28;98564;-65
2024/01/16 01:07:56;;;;;;;;;;;;;;;8.70;46.75;99251.44;4943352;28;98056;-71
2024/01/16 01:10:23;;;;;;;;;;;;;;;8.71;47.23;99259.19;4960024;28;98388;-71
2024/01/16 01:12:49;;;;;;;;;;;;;;;8.74;46.63;99268.59;4945518;28;98795;-65
2024/01/16 01:15:15;;;;;;;;;;;;;;;8.73;46.83;99262.41;4924204;28;108036;-71
2024/01/16 01:17:41;;;;;;;;;;;;;;;8.73;46.60;99266.97;4928674;28;99200;-71
2024/01/16 01:20:08;;;;;;;;;;;;;;;8.73;46.68;99270.47;4928390;28;98012;-66
2024/01/16 01:22:35;;;;;;;;;;;;;;;8.74;47.11;99272.06;4923742;28;99342;-65
2024/01/16 01:25:01;;;;;;;;;;;;;;;8.73;46.83;99264.31;4944692;28;98168;-65
2024/01/16 01:27:27;;;;;;;;;;;;;;;8.74;46.51;99282.81;4931473;28;98342;-65
2024/01/16 01:29:53;;;;;;;;;;;;;;;8.74;46.91;99277.44;4939428;28;99704;-66
2024/01/16 01:32:19;;;;;;;;;;;;;;;8.75;47.10;99275.53;4925101;28;103599;-65
2024/01/16 01:34:45;;;;;;;;;;;;;;;8.74;47.48;99271.25;4929236;28;98449;-65
2024/01/16 01:37:11;;;;;;;;;;;;;;;8.73;47.07;99280.41;4930255;28;98142;-65
2024/01/16 01:39:37;;;;;;;;;;;;;;;8.72;47.09;99282.28;4922588;28;99011;-68
2024/01/16 01:42:03;;;;;;;;;;;;;;;8.72;47.04;99295.72;4936805;28;99789;-72
2024/01/16 01:44:29;;;;;;;;;;;;;;;8.72;46.82;99295.72;4938418;28;98034;-65
2024/01/16 01:46:55;;;;;;;;;;;;;;;8.71;46.44;99302.19;4926505;28;98997;-65
2024/01/16 01:49:21;;;;;;;;;;;;;;;8.71;46.75;99306.75;4942721;28;98152;-71
2024/01/16 01:51:47;;;;;;;;;;;;;;;8.70;46.55;99308.66;4928827;28;113122;-64
2024/01/16 01:54:13;;;;;;;;;;;;;;;8.70;47.20;99313.22;4936262;28;118231;-65
2024/01/16 01:56:41;;;;;;;;;;;;;;;8.69;46.60;99309.72;4928359;28;98952;-72
2024/01/16 01:59:07;;;;;;;;;;;;;;;8.68;47.35;99316.16;4926630;28;99712;-65
2024/01/16 02:01:33;;;;;;;;;;;;;;;8.68;47.35;99321.53;4930155;28;98017;-72
2024/01/16 02:03:59;;;;;;;;;;;;;;;8.68;46.81;99318.06;4941794;28;98190;-65
2024/01/16 02:06:25;;;;;;;;;;;;;;;8.67;47.35;99319.16;4924691;28;99568;-65
2024/01/16 02:08:51;;;;;;;;;;;;;;;8.67;46.69;99333.38;4925850;28;98367;-71
2024/01/16 02:11:17;;;;;;;;;;;;;;;8.66;47.02;99344.41;4945739;28;98009;-65
2024/01/16 02:13:43;;;;;;;;;;;;;;;8.66;46.49;99336.34;4929984;28;98104;-72
2024/01/16 02:16:22;;;;;;;;;;;;;;;8.64;47.38;99339.31;4925212;28;97987;-65
2024/01/16 02:18:49;;;;;;;;;;;;;;;8.64;46.65;99339.31;4922997;28;98973;-72
2024/01/16 02:21:21;;;;;;;;;;;;;;;8.63;46.95;99340.41;4925232;28;99599;-72
2024/01/16 02:23:47;;;;;;;;;;;;;;;8.62;47.32;99344.19;4929157;28;98060;-65
2024/01/16 02:26:19;;;;;;;;;;;;;;;8.62;46.57;99341.50;4923659;28;99894;-72
2024/01/16 02:28:46;;;;;;;;;;;;;;;8.61;46.81;99345.28;4941976;28;98353;-65
2024/01/16 02:31:12;;;;;;;;;;;;;;;8.60;47.32;99343.63;4954604;28;97875;-65
2024/01/16 02:33:38;;;;;;;;;;;;;;;8.58;46.96;99348.50;4925192;28;98153;-65
2024/01/16 02:36:04;;;;;;;;;;;;;;;8.58;46.69;99351.19;4931293;28;129364;-65
2024/01/16 02:38:30;;;;;;;;;;;;;;;8.58;47.19;99351.19;4929834;28;108813;-65
2024/01/16 02:40:56;;;;;;;;;;;;;;;8.57;46.80;99346.91;4937084;28;111924;-72
2024/01/16 02:43:23;;;;;;;;;;;;;;;8.57;46.80;99357.66;4927884;28;98188;-72
2024/01/16 02:45:49;;;;;;;;;;;;;;;8.56;46.76;99356.84;4940870;28;98292;-71
2024/01/16 02:48:15;;;;;;;;;;;;;;;8.55;46.94;99365.97;4939011;28;129839;-72
2024/01/16 02:50:41;;;;;;;;;;;;;;;8.55;46.89;99365.97;4939418;28;99306;-72
2024/01/16 02:53:07;;;;;;;;;;;;;;;8.54;46.74;99367.06;4928961;28;97923;-65
2024/01/16 02:55:33;;;;;;;;;;;;;;;8.54;47.28;99368.97;4925445;28;99965;-72
2024/01/16 02:57:59;;;;;;;;;;;;;;;8.54;47.16;99374.31;4925096;28;99479;-72
2024/01/16 03:00:25;;;;;;;;;;;;;;;8.54;46.76;99374.31;4925608;28;98139;-65
2024/01/16 03:02:52;;;;;;;;;;;;;;;8.52;46.66;99373.78;4939639;28;98218;-65
2024/01/16 03:05:18;;;;;;;;;;;;;;;8.52;47.16;99381.84;4941678;28;114473;-65
2024/01/16 03:07:44;;;;;;;;;;;;;;;8.53;46.96;99380.78;4925185;28;98026;-65
2024/01/16 03:10:11;;;;;;;;;;;;;;;8.52;46.77;99384.53;4926060;28;99431;-71
2024/01/16 03:12:37;;;;;;;;;;;;;;;8.52;47.31;99379.16;4928191;28;98201;-71
2024/01/16 03:15:03;;;;;;;;;;;;;;;8.51;46.91;99388.31;4938493;28;98826;-71
2024/01/16 03:17:29;;;;;;;;;;;;;;;8.50;47.42;99390.19;4926571;28;99773;-65
2024/01/16 03:19:55;;;;;;;;;;;;;;;8.49;46.93;99388.59;4930088;28;99101;-71
2024/01/16 03:22:22;;;;;;;;;;;;;;;8.49;47.20;99393.97;4941259;28;98283;-71
2024/01/16 03:24:49;;;;;;;;;;;;;;;8.49;46.90;99390.47;4930787;28;98107;-65
2024/01/16 03:27:15;;;;;;;;;;;;;;;8.48;47.21;99395.03;4941992;28;100300;-65
2024/01/16 03:29:41;;;;;;;;;;;;;;;8.48;46.96;99399.59;4932650;28;98038;-65
2024/01/16 03:32:08;;;;;;;;;;;;;;;8.48;47.02;99408.47;4926054;28;98015;-72
2024/01/16 03:34:34;;;;;;;;;;;;;;;8.47;47.02;99408.75;4929482;28;100326;-65
2024/01/16 03:37:00;;;;;;;;;;;;;;;8.47;46.92;99414.91;4945154;28;98678;-64
2024/01/16 03:39:26;;;;;;;;;;;;;;;8.47;46.50;99412.25;4926987;28;98266;-65
2024/01/16 03:41:52;;;;;;;;;;;;;;;8.48;47.22;99413.03;4941030;28;98202;-71
2024/01/16 03:44:18;;;;;;;;;;;;;;;8.48;47.07;99413.03;4929483;28;98858;-65
2024/01/16 03:46:44;;;;;;;;;;;;;;;8.47;47.01;99414.91;4925981;28;116064;-65
2024/01/16 03:49:10;;;;;;;;;;;;;;;8.46;46.94;99415.22;4928012;28;98278;-65
2024/01/16 03:51:36;;;;;;;;;;;;;;;8.47;46.76;99417.59;4946394;28;99219;-72
2024/01/16 03:54:02;;;;;;;;;;;;;;;8.45;46.85;99422.47;4927670;28;98190;-65
2024/01/16 03:56:30;;;;;;;;;;;;;;;8.47;47.30;99422.19;4930715;28;98310;-72
2024/01/16 03:58:56;;;;;;;;;;;;;;;8.46;46.71;99416.00;4931240;28;99321;-65
2024/01/16 04:01:32;;;;;;;;;;;;;;;8.46;47.38;99420.59;4928593;28;97915;-72
2024/01/16 04:03:59;;;;;;;;;;;;;;;8.46;47.00;99424.06;4927043;28;98070;-72
2024/01/16 04:06:26;;;;;;;;;;;;;;;8.46;47.00;99428.63;4924915;28;98372;-65
2024/01/16 04:08:52;;;;;;;;;;;;;;;8.46;46.72;99431.31;4927690;28;98444;-65
2024/01/16 04:11:18;;;;;;;;;;;;;;;8.46;47.29;99442.88;4926593;28;100790;-72
2024/01/16 04:13:44;;;;;;;;;;;;;;;8.47;47.32;99446.34;4926420;28;119781;-65
2024/01/16 04:16:12;;;;;;;;;;;;;;;8.46;46.77;99437.50;4928126;28;98344;-65
2024/01/16 04:18:39;;;;;;;;;;;;;;;8.47;47.01;99440.97;4946314;28;105579;-72
2024/01/16 04:21:06;;;;;;;;;;;;;;;8.46;47.38;99440.19;4938267;28;98181;-72
2024/01/16 04:23:32;;;;;;;;;;;;;;;8.45;46.49;99449.31;4928417;28;98925;-72
2024/01/16 04:25:58;;;;;;;;;;;;;;;8.46;46.85;99455.50;4943234;28;98869;-66
2024/01/16 04:28:24;;;;;;;;;;;;;;;8.46;46.49;99447.44;4938238;28;98116;-65
2024/01/16 04:30:50;;;;;;;;;;;;;;;8.46;46.64;99447.44;4927382;28;115087;-65
2024/01/16 04:33:16;;;;;;;;;;;;;;;8.46;47.33;99458.19;4923956;28;98909;-72
2024/01/16 04:35:42;;;;;;;;;;;;;;;8.46;46.65;99460.88;4923422;28;98272;-72
2024/01/16 04:38:08;;;;;;;;;;;;;;;8.46;47.19;99466.25;4955196;28;98166;-72
2024/01/16 04:40:34;;;;;;;;;;;;;;;8.47;46.92;99481.28;4942200;28;118765;-65
2024/01/16 04:43:00;;;;;;;;;;;;;;;8.45;46.70;99486.94;4927053;28;98066;-72
2024/01/16 04:45:27;;;;;;;;;;;;;;;8.47;47.28;99494.69;4941605;28;98090;-65
2024/01/16 04:47:52;;;;;;;;;;;;;;;8.47;47.19;99497.38;4944150;28;130630;-65
2024/01/16 04:50:19;;;;;;;;;;;;;;;8.47;46.81;99497.38;4940685;28;114883;-72
2024/01/16 04:52:45;;;;;;;;;;;;;;;8.47;46.78;99508.94;4928412;28;102270;-65
2024/01/16 04:55:11;;;;;;;;;;;;;;;8.47;46.52;99503.56;4927565;28;99682;-73
2024/01/16 04:57:37;;;;;;;;;;;;;;;8.47;46.96;99508.94;4926583;28;98117;-73
2024/01/16 05:00:07;;;;;;;;;;;;;;;8.47;46.89;99505.44;4931236;28;97959;-72
2024/01/16 05:02:34;;;;;;;;;;;;;;;8.47;47.27;99518.88;4945999;28;98223;-65
2024/01/16 05:05:00;;;;;;;;;;;;;;;8.47;46.97;99522.34;4928140;28;98031;-72
2024/01/16 05:07:27;;;;;;;;;;;;;;;8.46;46.94;99515.38;4927521;28;99114;-72
2024/01/16 05:09:53;;;;;;;;;;;;;;;8.46;47.20;99522.66;4922959;28;98572;-66
2024/01/16 05:12:20;;;;;;;;;;;;;;;8.47;46.42;99513.50;4942546;28;98820;-72
2024/01/16 05:14:46;;;;;;;;;;;;;;;8.46;46.89;99517.28;4937816;28;99528;-72
2024/01/16 05:17:12;;;;;;;;;;;;;;;8.47;46.87;99524.25;4939107;28;99485;-65
2024/01/16 05:19:38;;;;;;;;;;;;;;;8.47;46.79;99524.25;4937863;28;98145;-65
2024/01/16 05:22:04;;;;;;;;;;;;;;;8.47;47.25;99530.41;4927573;28;98742;-72
2024/01/16 05:24:30;;;;;;;;;;;;;;;8.46;46.84;99525.34;4925807;28;119098;-72
2024/01/16 05:26:56;;;;;;;;;;;;;;;8.46;47.29;99533.38;4930931;28;99477;-65
2024/01/16 05:29:22;;;;;;;;;;;;;;;8.47;47.04;99543.03;4956344;28;98034;-72
2024/01/16 05:31:48;;;;;;;;;;;;;;;8.46;47.05;99560.25;4944485;28;98147;-65
2024/01/16 05:34:15;;;;;;;;;;;;;;;8.47;46.56;99559.16;4920187;28;122462;-65
2024/01/16 05:36:41;;;;;;;;;;;;;;;8.47;46.87;99553.78;4925769;28;98018;-72
2024/01/16 05:39:08;;;;;;;;;;;;;;;8.47;46.97;99554.59;4924781;28;98115;-65
2024/01/16 05:41:34;;;;;;;;;;;;;;;8.46;46.86;99557.56;4937009;28;98065;-71
2024/01/16 05:44:03;;;;;;;;;;;;;;;8.46;46.87;99558.34;4919103;28;99818;-65
2024/01/16 05:46:31;;;;;;;;;;;;;;;8.46;46.95;99561.03;4942695;28;98071;-72
2024/01/16 05:48:57;;;;;;;;;;;;;;;8.45;46.92;99559.44;4923971;28;98317;-72
2024/01/16 05:51:24;;;;;;;;;;;;;;;8.46;46.75;99571.00;4918374;28;98148;-72
2024/01/16 05:53:51;;;;;;;;;;;;;;;8.44;46.67;99565.88;4933425;28;98963;-73
2024/01/16 05:56:17;;;;;;;;;;;;;;;8.43;46.90;99566.97;4933975;28;98202;-66
2024/01/16 05:58:43;;;;;;;;;;;;;;;8.42;47.28;99557.31;4932443;28;98383;-66
2024/01/16 06:01:09;;;;;;;;;;;;;;;8.42;47.13;99570.72;4920164;28;98016;-66
2024/01/16 06:03:35;;;;;;;;;;;;;;;8.42;46.87;99569.94;4922603;28;97961;-72
2024/01/16 06:06:02;;;;;;;;;;;;;;;8.42;46.82;99570.72;4952844;28;105646;-72
2024/01/16 06:08:28;;;;;;;;;;;;;;;8.42;46.88;99581.47;4921318;28;98315;-73
2024/01/16 06:10:54;;;;;;;;;;;;;;;8.42;47.30;99576.09;4922869;28;98458;-66
2024/01/16 06:13:21;;;;;;;;;;;;;;;8.42;46.42;99576.09;4937284;28;98136;-72
2024/01/16 06:15:47;;;;;;;;;;;;;;;8.42;47.33;99578.78;4935691;28;98049;-66
2024/01/16 06:18:13;;;;;;;;;;;;;;;8.42;46.93;99569.94;4932841;28;98045;-72
2024/01/16 06:20:39;;;;;;;;;;;;;;;8.41;46.98;99579.88;4917235;28;99653;-72
2024/01/16 06:23:05;;;;;;;;;;;;;;;8.43;46.78;99587.66;4921061;28;98120;-73
2024/01/16 06:25:31;;;;;;;;;;;;;;;8.43;46.59;99584.97;4942186;28;111067;-66
2024/01/16 06:27:57;;;;;;;;;;;;;;;8.44;46.89;99594.63;4956752;28;98101;-73
2024/01/16 06:30:23;;;;;;;;;;;;;;;8.43;46.88;99596.50;4925623;28;99844;-72
2024/01/16 06:32:49;;;;;;;;;;;;;;;8.43;46.41;99599.19;4923451;28;99432;-73
2024/01/16 06:35:19;;;;;;;;;;;;;;;8.44;46.73;99608.03;4942945;28;100105;-65
2024/01/16 06:37:45;;;;;;;;;;;;;;;8.45;47.20;99601.59;4954981;28;121371;-66
2024/01/16 06:40:11;;;;;;;;;;;;;;;8.46;46.61;99605.91;4922386;28;98190;-65
2024/01/16 06:42:37;;;;;;;;;;;;;;;8.45;46.99;99613.16;4938300;28;98477;-66
2024/01/16 06:45:04;;;;;;;;;;;;;;;8.46;46.79;99617.44;4937307;28;98254;-72
2024/01/16 06:47:31;;;;;;;;;;;;;;;8.45;47.40;99607.78;4943689;28;98408;-72
2024/01/16 06:49:57;;;;;;;;;;;;;;;8.46;46.69;99613.97;4937844;28;115804;-72
2024/01/16 06:52:24;;;;;;;;;;;;;;;8.45;47.32;99610.47;4963811;28;99993;-65
2024/01/16 06:54:50;;;;;;;;;;;;;;;8.46;46.90;99619.34;4925823;28;98450;-73
2024/01/16 06:57:16;;;;;;;;;;;;;;;8.46;47.28;99622.81;4924806;28;98119;-66
2024/01/16 06:59:43;;;;;;;;;;;;;;;8.46;47.11;99633.56;4931576;28;98003;-72
2024/01/16 07:02:09;;;;;;;;;;;;;;;8.46;46.84;99632.75;4926466;28;114737;-72
2024/01/16 07:04:36;;;;;;;;;;;;;;;8.46;46.70;99644.31;4926839;28;99738;-66
2024/01/16 07:07:02;;;;;;;;;;;;;;;8.47;46.98;99634.38;4931701;28;98056;-66
2024/01/16 07:09:29;;;;;;;;;;;;;;;8.45;46.81;99640.03;4926533;28;99277;-66
2024/01/16 07:11:55;;;;;;;;;;;;;;;8.46;46.96;99644.31;4957823;28;97946;-73
2024/01/16 07:14:21;;;;;;;;;;;;;;;8.47;46.91;99659.34;4931203;28;98147;-73
2024/01/16 07:16:47;;;;;;;;;;;;;;;8.47;46.89;99659.34;4946531;28;98204;-66
2024/01/16 07:19:13;;;;;;;;;;;;;;;8.46;46.62;99676.53;4939227;28;97978;-73
2024/01/16 07:21:40;;;;;;;;;;;;;;;8.47;47.18;99669.28;4924639;28;98857;-66
2024/01/16 07:24:06;;;;;;;;;;;;;;;8.46;46.68;99673.84;4937173;28;99057;-66
2024/01/16 07:26:32;;;;;;;;;;;;;;;8.46;46.44;99687.28;4947411;28;98405;-73
2024/01/16 07:28:58;;;;;;;;;;;;;;;8.46;47.21;99697.22;4930473;28;98052;-66
2024/01/16 07:31:25;;;;;;;;;;;;;;;8.46;47.34;99703.41;4928347;28;99083;-66
2024/01/16 07:33:51;;;;;;;;;;;;;;;8.45;46.81;99699.13;4925967;28;112504;-66
2024/01/16 07:36:17;;;;;;;;;;;;;;;8.45;47.34;99704.47;4950359;28;98019;-67
2024/01/16 07:38:43;;;;;;;;;;;;;;;8.46;46.78;99706.09;4943959;28;99974;-66
2024/01/16 07:41:09;;;;;;;;;;;;;;;8.45;47.30;99709.03;4926974;28;99382;-73
2024/01/16 07:43:35;;;;;;;;;;;;;;;8.47;46.92;99723.00;4931478;28;99395;-73
2024/01/16 07:46:02;;;;;;;;;;;;;;;8.48;47.10;99725.41;4929156;28;98641;-73
2024/01/16 07:48:29;;;;;;;;;;;;;;;8.50;46.81;99727.84;4928208;28;98206;-73
2024/01/16 07:50:55;;;;;;;;;;;;;;;8.51;47.14;99734.81;4926650;28;98035;-66
2024/01/16 07:53:21;;;;;;;;;;;;;;;8.51;47.15;99743.66;4922085;28;107469;-73
2024/01/16 07:55:47;;;;;;;;;;;;;;;8.55;47.12;99739.38;4928910;28;100347;-67
2024/01/16 07:58:15;;;;;;;;;;;;;;;8.59;46.75;99753.06;4945140;28;98646;-73
2024/01/16 08:00:41;;;;;;;;;;;;;;;8.62;46.98;99746.34;4939731;28;98360;-66
2024/01/16 08:03:08;;;;;;;;;;;;;;;8.66;46.40;99739.38;4927761;28;100181;-73
2024/01/16 08:05:34;;;;;;;;;;;;;;;8.71;47.00;99747.41;4924407;28;99778;-73
2024/01/16 08:08:00;;;;;;;;;;;;;;;8.78;46.23;99743.34;4925111;28;127275;-73
2024/01/16 08:10:26;;;;;;;;;;;;;;;8.89;46.32;99748.72;4962276;28;120134;-66
2024/01/16 08:12:52;;;;;;;;;;;;;;;8.96;46.35;99750.03;4945160;28;128197;-66
2024/01/16 08:15:18;;;;;;;;;;;;;;;9.02;46.42;99751.63;4930300;28;97920;-73
2024/01/16 08:17:44;;;;;;;;;;;;;;;9.07;46.35;99756.97;4941051;28;98086;-66
2024/01/16 08:20:11;;;;;;;;;;;;;;;9.12;46.82;99763.41;4922227;28;98100;-66
2024/01/16 08:22:37;;;;;;;;;;;;;;;9.07;46.46;99770.41;4929034;28;119986;-66
2024/01/16 08:25:06;;;;;;;;;;;;;;;9.05;46.79;99759.13;4939569;28;97944;-67
2024/01/16 08:27:33;;;;;;;;;;;;;;;9.09;46.53;99765.59;4928866;28;98313;-67
2024/01/16 08:29:59;;;;;;;;;;;;;;;9.18;46.50;99771.19;4931376;28;97985;-74
2024/01/16 08:32:25;;;;;;;;;;;;;;;9.27;46.09;99766.84;4946906;28;97862;-66
2024/01/16 08:34:52;;;;;;;;;;;;;;;9.30;46.69;99771.69;4925860;28;98934;-67
2024/01/16 08:37:18;;;;;;;;;;;;;;;9.28;46.78;99762.28;4927678;28;98161;-74
2024/01/16 08:39:43;;;;;;;;;;;;;;;9.30;46.15;99766.28;4928958;28;100179;-67
2024/01/16 08:42:11;;;;;;;;;;;;;;;9.44;46.60;99774.59;4926117;28;130182;-66
2024/01/16 08:44:40;;;;;;;;;;;;;;;9.76;46.25;99776.03;4929480;28;98223;-74
2024/01/16 08:47:07;;;;;;;;;;;;;;;9.78;45.93;99777.34;4929319;28;98350;-67
2024/01/16 08:49:33;;;;;;;;;;;;;;;9.77;46.37;99777.63;4939485;28;98076;-66
2024/01/16 08:51:59;;;;;;;;;;;;;;;9.96;46.13;99775.91;4945426;28;99313;-66
2024/01/16 08:54:26;;;;;;;;;;;;;;;10.31;45.62;99782.94;4947454;28;97884;-74
2024/01/16 08:56:52;;;;;;;;;;;;;;;10.28;46.38;99780.00;4944532;27;99426;-66
2024/01/16 08:59:18;;;;;;;;;;;;;;;10.23;45.97;99780.84;4928628;28;98299;-74
2024/01/16 09:01:44;;;;;;;;;;;;;;;10.20;46.11;99791.38;4944561;28;98045;-73
2024/01/16 09:04:10;;;;;;;;;;;;;;;10.17;46.31;99790.03;4926989;28;101329;-73
2024/01/16 09:06:36;;;;;;;;;;;;;;;10.13;46.68;99788.19;4923780;28;99313;-74
2024/01/16 09:09:04;;;;;;;;;;;;;;;10.12;46.11;99783.88;4926040;28;100819;-66
2024/01/16 09:11:31;;;;;;;;;;;;;;;10.15;46.50;99800.28;4939750;28;98144;-74
2024/01/16 09:13:58;;;;;;;;;;;;;;;10.18;46.30;99791.66;4927950;28;98364;-73
2024/01/16 09:16:24;;;;;;;;;;;;;;;10.20;46.59;99796.75;4925725;28;99888;-66
2024/01/16 09:18:54;;;;;;;;;;;;;;;10.18;46.16;99793.50;4922588;28;98202;-66
2024/01/16 09:21:20;;;;;;;;;;;;;;;10.17;46.45;99800.00;4931768;28;98049;-74
2024/01/16 09:23:49;;;;;;;;;;;;;;;10.17;46.55;99794.59;4929525;28;98144;-74
2024/01/16 09:26:17;;;;;;;;;;;;;;;10.24;46.43;99803.97;4933386;28;130795;-66
2024/01/16 09:28:44;;;;;;;;;;;;;;;10.40;46.34;99799.31;4930906;28;97999;-66
2024/01/16 09:31:10;;;;;;;;;;;;;;;10.44;46.45;99796.84;4945016;28;98936;-66
2024/01/16 09:33:36;;;;;;;;;;;;;;;10.46;46.03;99798.19;4944271;28;98038;-66
2024/01/16 09:36:03;;;;;;;;;;;;;;;10.53;46.01;99792.47;4929925;28;98115;-73
2024/01/16 09:38:30;;;;;;;;;;;;;;;10.64;46.33;99785.09;4931168;28;98159;-71
2024/01/16 09:40:58;;;;;;;;;;;;;;;11.02;45.71;99786.06;4941457;28;98789;-73
2024/01/16 09:43:27;;;;;;;;;;;;;;;11.33;45.69;99789.22;4925356;28;98061;-73
2024/01/16 09:45:54;;;;;;;;;;;;;;;11.44;45.78;99787.22;4923843;28;100915;-66
2024/01/16 09:48:20;;;;;;;;;;;;;;;11.57;45.73;99796.50;4941666;28;98354;-65
2024/01/16 09:50:46;;;;;;;;;;;;;;;11.45;45.97;99794.19;4942314;28;129736;-65
2024/01/16 09:53:12;;;;;;;;;;;;;;;11.30;46.13;99804.09;4925740;28;98352;-65
2024/01/16 09:55:38;;;;;;;;;;;;;;;11.22;46.31;99799.31;4930231;28;99359;-66
2024/01/16 09:58:05;;;;;;;;;;;;;;;11.17;46.27;99798.59;4927394;28;116725;-65
2024/01/16 10:00:31;;;;;;;;;;;;;;;11.15;46.26;99806.94;4923842;28;99571;-73
2024/01/16 10:02:58;;;;;;;;;;;;;;;11.12;46.23;99798.63;4930790;28;98100;-65
2024/01/16 10:05:25;;;;;;;;;;;;;;;11.10;46.27;99817.00;4926773;28;99541;-65
2024/01/16 10:07:51;;;;;;;;;;;;;;;11.12;46.44;99807.53;4926195;28;98054;-65
2024/01/16 10:10:18;;;;;;;;;;;;;;;11.38;45.90;99808.03;4927607;28;112165;-73
2024/01/16 10:12:44;;;;;;;;;;;;;;;11.47;45.90;99805.50;4927995;28;98757;-65
2024/01/16 10:15:11;;;;;;;;;;;;;;;11.39;46.28;99820.44;4923377;28;99755;-65
2024/01/16 10:17:38;;;;;;;;;;;;;;;11.31;46.50;99821.06;4939247;28;97947;-66
2024/01/16 10:20:05;;;;;;;;;;;;;;;11.21;46.39;99819.31;4926895;28;98026;-66
2024/01/16 10:22:31;;;;;;;;;;;;;;;11.18;46.40;99829.84;4944766;28;98370;-74
2024/01/16 10:25:07;;;;;;;;;;;;;;;11.11;46.46;99829.38;4931339;28;98541;-66
2024/01/16 10:27:34;;;;;;;;;;;;;;;11.04;46.66;99827.84;4959269;28;98600;-66
2024/01/16 10:30:00;;;;;;;;;;;;;;;11.02;46.70;99837.31;4927447;28;97986;-74
2024/01/16 10:32:30;;;;;;;;;;;;;;;11.01;46.30;99836.50;4946458;28;98185;-66
2024/01/16 10:35:10;;;;;;;;;;;;;;;11.03;46.62;99837.00;4930213;28;100474;-66
2024/01/16 10:37:53;;;;;;;;;;;;;;;11.09;46.44;99836.97;4930562;28;98001;-75
2024/01/16 10:40:20;;;;;;;;;;;;;;;11.11;46.54;99843.69;4947928;28;99763;-74
2024/01/16 10:42:47;;;;;;;;;;;;;;;11.15;46.36;99844.72;4943688;28;98264;-75
2024/01/16 10:45:18;;;;;;;;;;;;;;;11.22;46.34;99839.78;4931031;28;98340;-66
2024/01/16 10:47:46;;;;;;;;;;;;;;;11.34;46.32;99838.59;4945835;28;98687;-74
2024/01/16 10:50:12;;;;;;;;;;;;;;;11.41;46.17;99837.16;4930524;28;98353;-66
2024/01/16 10:52:44;;;;;;;;;;;;;;;11.46;46.28;99833.59;4927533;28;98284;-75
2024/01/16 10:55:10;;;;;;;;;;;;;;;11.50;46.33;99840.00;4945595;28;97851;-75
2024/01/16 10:57:36;;;;;;;;;;;;;;;11.49;46.23;99838.41;4943438;28;98069;-75
2024/01/16 11:00:07;;;;;;;;;;;;;;;11.43;46.45;99834.16;4925881;28;126028;-66
2024/01/16 11:02:44;;;;;;;;;;;;;;;11.41;46.43;99830.97;4930582;28;98229;-75
2024/01/16 11:05:12;;;;;;;;;;;;;;;11.36;46.44;99834.53;4944038;28;99833;-66
2024/01/16 11:07:38;;;;;;;;;;;;;;;11.30;46.52;99836.47;4934380;28;98343;-66
2024/01/16 11:10:05;;;;;;;;;;;;;;;11.25;46.63;99836.53;4925879;28;98224;-75
2024/01/16 11:12:31;;;;;;;;;;;;;;;11.21;46.48;99829.28;4928271;28;98863;-66
2024/01/16 11:14:58;;;;;;;;;;;;;;;11.17;46.64;99833.66;4943877;28;99351;-74
2024/01/16 11:17:24;;;;;;;;;;;;;;;11.11;46.72;99835.59;4931655;28;98070;-66
2024/01/16 11:19:50;;;;;;;;;;;;;;;11.07;46.77;99829.16;4940717;28;111993;-66
2024/01/16 11:22:16;;;;;;;;;;;;;;;11.01;46.83;99833.00;4923268;28;121802;-66
2024/01/16 11:24:43;;;;;;;;;;;;;;;11.01;46.64;99823.03;4929345;28;102400;-75
2024/01/16 11:27:11;;;;;;;;;;;;;;;11.03;46.52;99825.41;4924449;28;99905;-66
2024/01/16 11:29:38;;;;;;;;;;;;;;;11.06;46.61;99827.56;4927380;28;113406;-66
2024/01/16 11:32:05;;;;;;;;;;;;;;;11.07;46.32;99824.56;4928049;28;98395;-75
2024/01/16 11:34:49;;;;;;;;;;;;;;;11.10;46.49;99827.78;4932035;28;98637;-66
2024/01/16 11:37:15;;;;;;;;;;;;;;;11.15;46.46;99830.44;4955810;28;99984;-74
2024/01/16 11:39:41;;;;;;;;;;;;;;;11.17;46.68;99828.25;4937921;28;98454;-74
2024/01/16 11:42:10;;;;;;;;;;;;;;;11.21;46.43;99830.09;4930110;28;98404;-74
2024/01/16 11:44:53;;;;;;;;;;;;;;;11.26;46.31;99818.44;4924918;28;98402;-74
2024/01/16 11:47:20;;;;;;;;;;;;;;;11.28;46.51;99827.06;4946721;28;100466;-65
2024/01/16 11:49:52;;;;;;;;;;;;;;;11.28;46.43;99827.88;4941047;28;98175;-73
2024/01/16 11:52:43;;;;;;;;;;;;;;;11.31;46.40;99829.16;4931302;28;98030;-73
2024/01/16 11:55:26;;;;;;;;;;;;;;;11.34;46.41;99820.50;4945048;28;99603;-74
2024/01/16 11:58:05;;;;;;;;;;;;;;;11.38;46.38;99823.44;4930223;28;99691;-74
2024/01/16 12:00:32;;;;;;;;;;;;;;;11.41;46.33;99814.75;4954647;28;99424;-73
2024/01/16 12:03:00;;;;;;;;;;;;;;;11.44;46.38;99823.09;4966025;28;98251;-65
2024/01/16 12:05:26;;;;;;;;;;;;;;;11.50;46.28;99813.03;4926731;28;121588;-65
2024/01/16 12:07:54;;;;;;;;;;;;;;;11.55;46.56;99810.25;4931329;28;98125;-73
2024/01/16 12:10:22;;;;;;;;;;;;;;;11.60;46.19;99812.09;4942512;28;100680;-65
2024/01/16 12:12:48;;;;;;;;;;;;;;;11.63;46.28;99801.53;4949947;28;98134;-73
2024/01/16 12:15:16;;;;;;;;;;;;;;;11.65;46.27;99802.03;4924285;28;98199;-65
2024/01/16 12:17:56;;;;;;;;;;;;;;;11.69;46.22;99800.34;4940303;28;98134;-65
2024/01/16 12:20:22;;;;;;;;;;;;;;;11.73;46.18;99796.00;4943800;28;98905;-65
2024/01/16 12:22:55;;;;;;;;;;;;;;;11.75;46.19;99799.22;4933266;28;98057;-73
2024/01/16 12:25:22;;;;;;;;;;;;;;;11.78;46.18;99795.09;4931307;28;98349;-73
2024/01/16 12:27:58;;;;;;;;;;;;;;;11.80;46.45;99803.72;4944253;28;99714;-73
2024/01/16 12:30:31;;;;;;;;;;;;;;;11.81;46.05;99797.22;4942029;28;98037;-73
2024/01/16 12:33:12;;;;;;;;;;;;;;;11.82;46.24;99793.44;4957792;28;97960;-73
2024/01/16 12:35:38;;;;;;;;;;;;;;;11.84;45.89;99794.00;4944866;28;98057;-73
2024/01/16 12:38:09;;;;;;;;;;;;;;;11.86;46.31;99796.38;4958791;28;99637;-65
2024/01/16 12:40:39;;;;;;;;;;;;;;;11.87;46.18;99793.41;4957082;28;104231;-65
2024/01/16 12:43:05;;;;;;;;;;;;;;;11.88;46.20;99795.00;4928717;28;98206;-65
2024/01/16 12:45:32;;;;;;;;;;;;;;;11.88;46.22;99792.31;4927165;28;99177;-65
2024/01/16 12:47:59;;;;;;;;;;;;;;;11.90;45.96;99795.50;4947123;28;99510;-74
2024/01/16 12:50:27;;;;;;;;;;;;;;;11.90;46.22;99784.69;4930455;28;98273;-66
2024/01/16 12:53:04;;;;;;;;;;;;;;;11.90;46.16;99790.09;4945123;28;98442;-74